Time;durP1;ratioP1;P1;durP2;ratioP2;P2;SDS_P1;SDS_P2;PMS_P1;PMS_P2;Temp;Humidity;BMP_temperature;BMP_pressure;BME280_temperature;BME280_humidity;BME280_pressure;Samples;Min_cycle;Max_cycle;Signal;HPM_P1;HPM_P2
2024/01/31 00:02:24;;;;;;;18.83;13.77;;;9.20;99.90;;;;;;5096313;28;20180;-74
2024/01/31 00:04:50;;;;;;;18.07;14.30;;;9.10;99.90;;;;;;5096640;28;20182;-74
2024/01/31 00:07:15;;;;;;;17.73;14.40;;;8.90;99.90;;;;;;5094976;28;20164;-73
2024/01/31 00:09:41;;;;;;;18.70;15.07;;;8.90;99.90;;;;;;5096575;28;20215;-74
2024/01/31 00:12:07;;;;;;;18.67;15.07;;;8.90;99.90;;;;;;5096202;28;20172;-74
2024/01/31 00:14:32;;;;;;;18.67;14.33;;;9.00;99.90;;;;;;5096444;28;20265;-74
2024/01/31 00:16:58;;;;;;;19.63;14.83;;;9.10;99.90;;;;;;5094544;28;20260;-74
2024/01/31 00:19:24;;;;;;;20.43;15.43;;;9.20;99.90;;;;;;5096354;28;20172;-74
2024/01/31 00:21:49;;;;;;;21.33;16.27;;;9.30;99.90;;;;;;5094652;28;20583;-74
2024/01/31 00:24:15;;;;;;;27.03;17.93;;;9.30;99.90;;;;;;5096298;28;20225;-74
2024/01/31 00:26:40;;;;;;;23.13;17.17;;;9.20;99.90;;;;;;5096083;28;20172;-74
2024/01/31 00:29:06;;;;;;;23.57;17.33;;;9.20;99.90;;;;;;5096155;28;20306;-75
2024/01/31 00:31:33;;;;;;;25.73;17.73;;;9.30;99.90;;;;;;5095476;28;20268;-75
2024/01/31 00:33:58;;;;;;;25.03;17.27;;;9.20;99.90;;;;;;5094793;28;20249;-74
2024/01/31 00:36:24;;;;;;;25.40;18.07;;;9.30;99.90;;;;;;5095948;28;20635;-75
2024/01/31 00:38:49;;;;;;;22.63;17.10;;;9.30;99.90;;;;;;5094674;28;20263;-74
2024/01/31 00:41:15;;;;;;;26.67;19.07;;;9.20;99.90;;;;;;5095623;28;20293;-73
2024/01/31 00:43:41;;;;;;;25.43;17.63;;;9.20;99.90;;;;;;5095749;28;20164;-74
2024/01/31 00:46:06;;;;;;;23.97;17.67;;;9.20;99.90;;;;;;5095295;28;20187;-74
2024/01/31 00:48:32;;;;;;;26.53;17.73;;;9.30;99.90;;;;;;5095716;28;20199;-74
2024/01/31 00:50:58;;;;;;;22.60;16.93;;;9.30;99.90;;;;;;5094257;28;20555;-74
2024/01/31 00:53:24;;;;;;;24.80;17.23;;;9.30;99.90;;;;;;5095515;28;20209;-74
2024/01/31 00:55:50;;;;;;;22.30;16.83;;;9.20;99.90;;;;;;5095556;28;20180;-74
2024/01/31 00:58:15;;;;;;;22.93;16.53;;;9.20;99.90;;;;;;5095097;28;20528;-74
2024/01/31 01:00:41;;;;;;;23.43;17.00;;;9.10;99.90;;;;;;5094174;28;20623;-73
2024/01/31 01:03:07;;;;;;;27.87;20.47;;;9.00;99.90;;;;;;5095430;28;20286;-73
2024/01/31 01:05:32;;;;;;;79.23;29.23;;;9.00;99.90;;;;;;5095152;28;20164;-74
2024/01/31 01:07:59;;;;;;;39.97;28.77;;;8.80;99.90;;;;;;5095344;28;20230;-74
2024/01/31 01:10:24;;;;;;;37.03;27.87;;;8.70;99.90;;;;;;5094068;28;20222;-75
2024/01/31 01:12:50;;;;;;;38.00;28.93;;;8.80;99.90;;;;;;5095171;28;20172;-74
2024/01/31 01:15:18;;;;;;;51.00;31.23;;;8.80;99.90;;;;;;5094937;28;20172;-74
2024/01/31 01:17:44;;;;;;;39.57;25.67;;;9.00;99.90;;;;;;5094996;28;20187;-74
2024/01/31 01:20:10;;;;;;;31.73;23.80;;;9.00;99.90;;;;;;5094879;28;20172;-74
2024/01/31 01:22:36;;;;;;;41.67;29.30;;;9.00;99.90;;;;;;5093520;28;20172;-74
2024/01/31 01:25:01;;;;;;;26.70;18.53;;;9.00;99.90;;;;;;5095012;28;20651;-74
2024/01/31 01:27:27;;;;;;;33.83;19.27;;;9.00;99.90;;;;;;5093464;28;20203;-74
2024/01/31 01:29:53;;;;;;;29.10;18.70;;;9.00;99.90;;;;;;5094453;28;20267;-74
2024/01/31 01:32:18;;;;;;;25.87;19.60;;;9.00;99.90;;;;;;5094467;28;20235;-75
2024/01/31 01:34:45;;;;;;;25.07;19.17;;;9.00;99.90;;;;;;5094678;28;20168;-74
2024/01/31 01:37:11;;;;;;;27.50;18.90;;;9.10;99.90;;;;;;5094657;28;20172;-75
2024/01/31 01:39:37;;;;;;;31.47;19.27;;;8.90;99.90;;;;;;5094650;28;20179;-74
2024/01/31 01:42:03;;;;;;;28.57;19.03;;;9.00;99.90;;;;;;5094399;28;20197;-74
2024/01/31 01:44:32;;;;;;;28.40;21.07;;;9.00;99.90;;;;;;5094120;28;20513;-74
2024/01/31 01:46:58;;;;;;;37.53;26.87;;;9.00;99.90;;;;;;5094424;28;20192;-74
2024/01/31 01:49:24;;;;;;;33.83;21.33;;;9.10;99.90;;;;;;5093134;28;20334;-74
2024/01/31 01:51:50;;;;;;;37.70;24.07;;;9.20;99.90;;;;;;5094476;28;20267;-74
2024/01/31 01:54:16;;;;;;;37.77;24.13;;;9.20;99.90;;;;;;5094315;28;20164;-74
2024/01/31 01:56:45;;;;;;;37.13;23.93;;;9.20;99.90;;;;;;5094217;28;20190;-72
2024/01/31 01:59:12;;;;;;;39.03;24.40;;;9.20;99.90;;;;;;5094134;28;20623;-73
2024/01/31 02:01:39;;;;;;;32.53;24.20;;;9.10;99.90;;;;;;5094178;28;20171;-75
2024/01/31 02:04:07;;;;;;;45.43;27.13;;;9.20;99.90;;;;;;5094112;28;20168;-74
2024/01/31 02:06:33;;;;;;;35.87;24.53;;;9.10;99.90;;;;;;5094135;28;20175;-73
2024/01/31 02:08:59;;;;;;;41.40;24.23;;;9.00;99.90;;;;;;5092811;28;20219;-74
2024/01/31 02:11:25;;;;;;;35.60;24.40;;;9.00;99.90;;;;;;5092360;28;20187;-74
2024/01/31 02:13:51;;;;;;;36.87;23.73;;;9.00;99.90;;;;;;5093533;28;20172;-73
2024/01/31 02:16:16;;;;;;;33.47;24.63;;;9.10;99.90;;;;;;5094061;28;20646;-73
2024/01/31 02:18:42;;;;;;;33.90;24.90;;;9.10;99.90;;;;;;5092792;28;20710;-73
2024/01/31 02:21:07;;;;;;;35.10;24.50;;;9.20;99.90;;;;;;5093895;28;20339;-74
2024/01/31 02:23:33;;;;;;;38.00;24.50;;;9.30;99.90;;;;;;5093800;28;20635;-72
2024/01/31 02:25:59;;;;;;;32.80;22.23;;;9.30;99.90;;;;;;5093833;28;20187;-73
2024/01/31 02:28:25;;;;;;;32.23;22.40;;;9.30;99.90;;;;;;5093281;28;20576;-74
2024/01/31 02:30:51;;;;;;;33.53;22.80;;;9.40;99.90;;;;;;5093473;28;20172;-74
2024/01/31 02:33:17;;;;;;;31.13;22.30;;;9.30;99.90;;;;;;5093753;28;20175;-74
2024/01/31 02:35:42;;;;;;;34.93;23.30;;;9.30;99.90;;;;;;5092457;28;20186;-74
2024/01/31 02:38:08;;;;;;;35.77;23.10;;;9.40;99.90;;;;;;5093660;28;20619;-74
2024/01/31 02:40:33;;;;;;;32.80;21.70;;;9.40;99.90;;;;;;5093735;28;20639;-73
2024/01/31 02:42:59;;;;;;;36.63;20.97;;;9.50;99.90;;;;;;5093099;28;20225;-74
2024/01/31 02:45:25;;;;;;;29.60;22.73;;;9.50;99.90;;;;;;5093536;28;20205;-74
2024/01/31 02:47:51;;;;;;;77.60;53.97;;;9.50;99.90;;;;;;5091994;28;20245;-73
2024/01/31 02:50:17;;;;;;;36.63;24.73;;;9.50;99.90;;;;;;5093433;28;20195;-73
2024/01/31 02:52:44;;;;;;;23.10;16.23;;;9.50;99.90;;;;;;5093511;28;20172;-74
2024/01/31 02:55:09;;;;;;;19.47;14.30;;;9.20;99.90;;;;;;5093276;28;20266;-73
2024/01/31 02:57:35;;;;;;;15.73;11.17;;;9.10;99.90;;;;;;5092955;28;20206;-73
2024/01/31 03:00:04;;;;;;;16.10;12.23;;;8.80;99.90;;;;;;5093276;28;20304;-73
2024/01/31 03:02:30;;;;;;;20.97;12.60;;;8.70;99.90;;;;;;5093146;28;20224;-74
2024/01/31 03:04:55;;;;;;;17.77;11.80;;;8.60;99.90;;;;;;5093365;28;20263;-73
2024/01/31 03:07:21;;;;;;;19.70;12.07;;;8.60;99.90;;;;;;5093110;28;20165;-75
2024/01/31 03:09:47;;;;;;;17.27;12.70;;;8.40;99.90;;;;;;5093145;28;20284;-73
2024/01/31 03:12:12;;;;;;;18.00;12.20;;;8.30;99.90;;;;;;5092894;28;20160;-73
2024/01/31 03:14:39;;;;;;;23.30;11.03;;;8.30;99.90;;;;;;5092950;28;20630;-73
2024/01/31 03:17:04;;;;;;;21.93;10.10;;;8.20;99.90;;;;;;5093071;28;20179;-72
2024/01/31 03:19:32;;;;;;;22.80;10.20;;;8.20;99.90;;;;;;5091859;28;20176;-72
2024/01/31 03:21:57;;;;;;;21.30;9.50;;;8.30;99.90;;;;;;5093027;28;20171;-73
2024/01/31 03:24:23;;;;;;;17.77;8.73;;;8.30;99.90;;;;;;5096984;28;20175;-72
2024/01/31 03:26:49;;;;;;;19.83;8.93;;;8.30;99.90;;;;;;5095889;28;20661;-73
2024/01/31 03:29:15;;;;;;;17.40;8.90;;;8.30;99.90;;;;;;5097140;28;20280;-73
2024/01/31 03:31:40;;;;;;;19.17;9.20;;;8.30;99.90;;;;;;5096699;28;20257;-73
2024/01/31 03:34:06;;;;;;;19.63;9.10;;;8.20;99.90;;;;;;5097148;28;20167;-73
2024/01/31 03:36:33;;;;;;;17.60;9.40;;;8.20;99.90;;;;;;5097272;28;20198;-73
2024/01/31 03:39:01;;;;;;;20.30;11.00;;;8.30;99.90;;;;;;5096783;28;20225;-73
2024/01/31 03:41:27;;;;;;;18.30;10.70;;;8.40;99.90;;;;;;5096684;28;20176;-74
2024/01/31 03:43:54;;;;;;;19.90;10.77;;;8.50;99.90;;;;;;5096797;28;20247;-73
2024/01/31 03:46:20;;;;;;;18.90;11.20;;;8.40;99.90;;;;;;5096719;28;20216;-73
2024/01/31 03:48:47;;;;;;;23.67;10.33;;;8.30;99.90;;;;;;5097112;28;20558;-73
2024/01/31 03:51:22;;;;;;;24.43;11.17;;;8.40;99.90;;;;;;5096823;28;20192;-73
2024/01/31 03:53:49;;;;;;;20.17;10.90;;;8.50;99.90;;;;;;5096739;28;20175;-73
2024/01/31 03:56:15;;;;;;;22.23;11.40;;;8.70;99.90;;;;;;5096716;28;20168;-72
2024/01/31 03:58:41;;;;;;;24.30;11.93;;;8.80;99.90;;;;;;5096395;28;20179;-72
2024/01/31 04:01:07;;;;;;;22.63;11.47;;;8.90;99.90;;;;;;5096626;28;20171;-73
2024/01/31 04:03:33;;;;;;;26.17;11.83;;;9.00;99.90;;;;;;5095377;28;20209;-73
2024/01/31 04:05:59;;;;;;;21.70;11.17;;;9.00;99.90;;;;;;5096716;28;20176;-73
2024/01/31 04:08:24;;;;;;;17.83;11.77;;;9.10;99.90;;;;;;5096198;28;20196;-73
2024/01/31 04:10:52;;;;;;;23.37;13.53;;;8.90;99.90;;;;;;5095061;28;20172;-73
2024/01/31 04:13:18;;;;;;;22.40;12.40;;;8.90;99.90;;;;;;5096336;28;20164;-73
2024/01/31 04:15:44;;;;;;;21.10;12.47;;;9.00;99.90;;;;;;5096284;28;20209;-74
2024/01/31 04:18:10;;;;;;;24.67;12.27;;;9.00;99.90;;;;;;5095936;28;20200;-73
2024/01/31 04:20:38;;;;;;;22.83;13.27;;;9.00;99.90;;;;;;5094818;28;20210;-72
2024/01/31 04:23:04;;;;;;;24.53;13.80;;;9.10;99.90;;;;;;5095897;28;20240;-72
2024/01/31 04:25:29;;;;;;;24.43;13.37;;;8.90;99.90;;;;;;5096020;28;20168;-73
2024/01/31 04:27:55;;;;;;;23.60;14.20;;;9.10;99.90;;;;;;5095740;28;20303;-74
2024/01/31 04:30:20;;;;;;;26.97;16.80;;;9.20;99.90;;;;;;5095908;28;20181;-74
2024/01/31 04:32:46;;;;;;;29.33;16.77;;;9.30;99.90;;;;;;5095612;28;20219;-73
2024/01/31 04:35:12;;;;;;;30.10;19.80;;;9.20;99.90;;;;;;5094186;28;20197;-73
2024/01/31 04:37:38;;;;;;;33.20;19.03;;;9.10;99.90;;;;;;5094103;28;20174;-73
2024/01/31 04:40:04;;;;;;;26.97;18.27;;;9.10;99.90;;;;;;5095732;28;20171;-73
2024/01/31 04:42:30;;;;;;;30.93;21.03;;;9.20;99.90;;;;;;5094235;28;20176;-73
2024/01/31 04:44:56;;;;;;;39.00;24.80;;;9.10;99.90;;;;;;5095634;28;20176;-73
2024/01/31 04:47:25;;;;;;;40.00;25.43;;;9.00;99.90;;;;;;5095320;28;20228;-73
2024/01/31 04:49:56;;;;;;;39.13;24.97;;;9.00;99.90;;;;;;5094322;28;20572;-74
2024/01/31 04:52:21;;;;;;;38.13;25.67;;;9.00;99.90;;;;;;5094966;28;20615;-73
2024/01/31 04:54:47;;;;;;;39.93;25.07;;;9.10;99.90;;;;;;5094728;28;20261;-73
2024/01/31 04:57:13;;;;;;;42.10;25.83;;;9.10;99.90;;;;;;5094075;28;20267;-73
2024/01/31 04:59:39;;;;;;;36.60;25.73;;;9.20;99.90;;;;;;5095416;28;20212;-74
2024/01/31 05:02:09;;;;;;;40.87;26.23;;;9.10;99.90;;;;;;5095021;28;20176;-73
2024/01/31 05:04:35;;;;;;;38.87;25.43;;;9.10;99.90;;;;;;5095498;28;20175;-73
2024/01/31 05:07:01;;;;;;;41.20;26.93;;;9.10;99.90;;;;;;5094739;28;20620;-73
2024/01/31 05:09:27;;;;;;;45.60;24.93;;;9.10;99.90;;;;;;5094940;28;20234;-72
2024/01/31 05:11:52;;;;;;;39.50;25.53;;;9.10;99.90;;;;;;5094701;28;20168;-73
2024/01/31 05:14:18;;;;;;;38.73;26.70;;;9.20;99.90;;;;;;5094756;28;20172;-73
2024/01/31 05:16:44;;;;;;;41.73;26.17;;;9.20;99.90;;;;;;5094918;28;20199;-73
2024/01/31 05:19:11;;;;;;;40.37;25.63;;;9.00;99.90;;;;;;5094835;28;20631;-74
2024/01/31 05:21:47;;;;;;;39.10;25.53;;;9.00;99.90;;;;;;5094270;28;20624;-74
2024/01/31 05:24:14;;;;;;;42.67;25.83;;;9.00;99.90;;;;;;5093277;28;20643;-74
2024/01/31 05:26:41;;;;;;;42.47;26.27;;;9.00;99.90;;;;;;5094653;28;20164;-74
2024/01/31 05:29:06;;;;;;;38.37;25.13;;;8.90;99.90;;;;;;5094252;28;20231;-74
2024/01/31 05:31:32;;;;;;;38.10;25.07;;;8.80;99.90;;;;;;5094013;28;20247;-75
2024/01/31 05:33:57;;;;;;;39.03;25.97;;;8.90;99.90;;;;;;5094300;28;20676;-73
2024/01/31 05:36:23;;;;;;;39.43;25.47;;;9.00;99.90;;;;;;5094189;28;20172;-74
2024/01/31 05:38:49;;;;;;;41.40;25.47;;;9.00;99.90;;;;;;5094510;28;20183;-73
2024/01/31 05:41:15;;;;;;;37.43;25.67;;;9.00;99.90;;;;;;5094397;28;20259;-73
2024/01/31 05:43:40;;;;;;;35.97;24.47;;;9.00;99.90;;;;;;5094006;28;20271;-73
2024/01/31 05:46:06;;;;;;;41.10;25.60;;;9.00;99.90;;;;;;5093130;28;20176;-74
2024/01/31 05:48:31;;;;;;;36.83;25.20;;;9.00;99.90;;;;;;5092798;28;20211;-73
2024/01/31 05:50:57;;;;;;;38.60;24.70;;;9.10;99.90;;;;;;5093515;28;20191;-75
2024/01/31 05:53:22;;;;;;;37.80;24.83;;;9.10;99.90;;;;;;5093513;28;20187;-74
2024/01/31 05:55:48;;;;;;;40.07;25.40;;;9.10;99.90;;;;;;5094111;28;20230;-73
2024/01/31 05:58:14;;;;;;;36.50;23.83;;;9.00;99.90;;;;;;5093951;28;20175;-74
2024/01/31 06:00:40;;;;;;;33.40;23.13;;;9.00;99.90;;;;;;5093697;28;20163;-75
2024/01/31 06:03:06;;;;;;;37.23;23.87;;;9.00;99.90;;;;;;5093505;28;20179;-73
2024/01/31 06:05:31;;;;;;;32.57;23.20;;;9.00;99.90;;;;;;5093416;28;20164;-73
2024/01/31 06:07:57;;;;;;;32.63;22.67;;;9.00;99.90;;;;;;5092704;28;20600;-74
2024/01/31 06:10:24;;;;;;;39.23;24.27;;;9.00;99.90;;;;;;5093349;28;20175;-74
2024/01/31 06:12:50;;;;;;;34.80;22.37;;;9.10;99.90;;;;;;5093342;28;20168;-74
2024/01/31 06:15:16;;;;;;;36.43;22.07;;;9.00;99.90;;;;;;5092324;28;20604;-74
2024/01/31 06:17:42;;;;;;;32.80;21.67;;;9.00;99.90;;;;;;5093618;28;20168;-74
2024/01/31 06:20:09;;;;;;;36.90;22.20;;;8.90;99.90;;;;;;5091071;28;20182;-75
2024/01/31 06:22:34;;;;;;;34.87;21.83;;;8.90;99.90;;;;;;5092482;28;20179;-74
2024/01/31 06:25:00;;;;;;;33.57;22.33;;;8.90;99.90;;;;;;5092924;28;20172;-74
2024/01/31 06:27:26;;;;;;;34.13;22.40;;;8.90;99.90;;;;;;5093137;28;20171;-74
2024/01/31 06:29:51;;;;;;;37.67;21.50;;;9.00;99.90;;;;;;5092819;28;20564;-74
2024/01/31 06:32:21;;;;;;;34.67;20.73;;;9.10;99.90;;;;;;5092556;28;20298;-75
2024/01/31 06:34:47;;;;;;;34.37;21.53;;;9.00;99.90;;;;;;5091646;28;20309;-75
2024/01/31 06:37:13;;;;;;;35.50;21.13;;;8.90;99.90;;;;;;5092942;28;20171;-74
2024/01/31 06:39:38;;;;;;;33.40;21.50;;;8.90;99.90;;;;;;5092745;28;20249;-73
2024/01/31 06:42:06;;;;;;;32.33;20.83;;;8.90;99.90;;;;;;5092427;28;20616;-75
2024/01/31 06:44:32;;;;;;;33.53;22.10;;;8.90;99.90;;;;;;5091389;28;20244;-75
2024/01/31 06:46:58;;;;;;;34.80;21.30;;;9.00;99.90;;;;;;5092396;28;20289;-75
2024/01/31 06:49:24;;;;;;;33.47;20.47;;;9.00;99.90;;;;;;5091643;28;20208;-74
2024/01/31 06:51:50;;;;;;;29.17;19.70;;;9.00;99.90;;;;;;5091626;28;20187;-75
2024/01/31 06:54:15;;;;;;;32.03;20.37;;;9.00;99.90;;;;;;5092183;28;20241;-75
2024/01/31 06:56:41;;;;;;;32.03;19.33;;;9.10;99.90;;;;;;5092167;28;20203;-75
2024/01/31 06:59:07;;;;;;;35.17;20.77;;;9.20;99.90;;;;;;5092352;28;20244;-75
2024/01/31 07:01:33;;;;;;;31.77;20.53;;;9.20;99.90;;;;;;5092000;28;20168;-74
2024/01/31 07:03:58;;;;;;;28.37;18.20;;;9.10;99.90;;;;;;5091833;28;20620;-75
2024/01/31 07:06:24;;;;;;;30.50;20.07;;;9.20;99.90;;;;;;5091664;28;20191;-75
2024/01/31 07:08:50;;;;;;;35.63;20.60;;;9.10;99.90;;;;;;5092066;28;20208;-75
2024/01/31 07:11:15;;;;;;;35.93;20.53;;;9.00;99.90;;;;;;5092237;28;20232;-75
2024/01/31 07:13:41;;;;;;;38.33;20.00;;;9.00;99.90;;;;;;5091596;28;20178;-75
2024/01/31 07:16:09;;;;;;;28.97;20.40;;;8.90;99.90;;;;;;5091996;28;20215;-74
2024/01/31 07:18:44;;;;;;;30.83;19.67;;;8.90;99.90;;;;;;5091223;28;20168;-73
2024/01/31 07:21:11;;;;;;;35.27;20.10;;;8.80;99.90;;;;;;5090539;28;20224;-73
2024/01/31 07:23:37;;;;;;;35.60;19.93;;;8.80;99.90;;;;;;5091852;28;20259;-74
2024/01/31 07:26:03;;;;;;;30.27;19.27;;;9.00;99.90;;;;;;5089639;28;20554;-74
2024/01/31 07:28:33;;;;;;;31.10;20.07;;;9.00;99.90;;;;;;5091681;28;20267;-72
2024/01/31 07:31:01;;;;;;;30.93;19.53;;;8.90;99.90;;;;;;5090809;28;20168;-74
2024/01/31 07:33:27;;;;;;;30.07;19.37;;;8.80;99.90;;;;;;5091786;28;20649;-74
2024/01/31 07:35:52;;;;;;;29.57;19.77;;;8.90;99.90;;;;;;5090335;28;20226;-72
2024/01/31 07:38:18;;;;;;;31.73;18.37;;;8.80;99.90;;;;;;5091994;28;20168;-72
2024/01/31 07:40:44;;;;;;;27.30;18.40;;;8.90;99.90;;;;;;5091999;28;20635;-75
2024/01/31 07:43:09;;;;;;;32.43;18.30;;;8.90;99.90;;;;;;5091807;28;20171;-73
2024/01/31 07:45:35;;;;;;;34.63;18.10;;;8.80;99.90;;;;;;5090961;28;20259;-73
2024/01/31 07:48:01;;;;;;;33.07;18.00;;;8.80;99.90;;;;;;5091270;28;20211;-74
2024/01/31 07:50:26;;;;;;;31.37;17.83;;;8.80;99.90;;;;;;5090237;28;20227;-76
2024/01/31 07:52:52;;;;;;;31.47;18.47;;;8.70;99.90;;;;;;5091241;28;20172;-74
2024/01/31 07:55:17;;;;;;;30.57;18.17;;;8.70;99.90;;;;;;5091318;28;20275;-72
2024/01/31 07:57:43;;;;;;;28.30;17.10;;;8.70;99.90;;;;;;5090794;28;20168;-72
2024/01/31 08:00:09;;;;;;;27.33;16.97;;;8.60;99.90;;;;;;5091142;28;20225;-74
2024/01/31 08:02:34;;;;;;;29.43;16.80;;;8.60;99.90;;;;;;5090497;28;20251;-74
2024/01/31 08:05:00;;;;;;;30.67;17.20;;;8.70;99.90;;;;;;5089091;28;20215;-73
2024/01/31 08:07:26;;;;;;;29.93;17.27;;;8.80;99.90;;;;;;5089775;28;20171;-74
2024/01/31 08:09:52;;;;;;;30.47;16.23;;;8.90;99.90;;;;;;5094706;28;20242;-74
2024/01/31 08:12:17;;;;;;;24.77;16.53;;;8.80;99.90;;;;;;5093836;28;20168;-74
2024/01/31 08:14:43;;;;;;;31.17;16.40;;;8.80;99.90;;;;;;5095037;28;20172;-74
2024/01/31 08:17:10;;;;;;;23.37;16.23;;;8.80;99.90;;;;;;5095050;28;20221;-76
2024/01/31 08:19:36;;;;;;;26.13;16.13;;;8.80;99.90;;;;;;5094770;28;20172;-71
2024/01/31 08:22:01;;;;;;;25.40;14.20;;;8.90;99.90;;;;;;5095221;28;20168;-72
2024/01/31 08:24:27;;;;;;;19.43;12.10;;;9.00;99.90;;;;;;5095272;28;20512;-70
2024/01/31 08:26:53;;;;;;;19.37;14.20;;;9.10;99.90;;;;;;5095174;28;20527;-72
2024/01/31 08:29:18;;;;;;;20.37;11.63;;;9.20;99.90;;;;;;5093424;28;20207;-73
2024/01/31 08:31:44;;;;;;;21.53;12.70;;;9.10;99.90;;;;;;5094306;28;20648;-73
2024/01/31 08:34:11;;;;;;;17.13;11.70;;;9.10;99.90;;;;;;5094750;28;20253;-72
2024/01/31 08:36:37;;;;;;;20.43;11.20;;;9.10;99.90;;;;;;5090325;28;20180;-76
2024/01/31 08:39:03;;;;;;;21.63;11.80;;;9.20;99.90;;;;;;5093227;28;20168;-75
2024/01/31 08:41:28;;;;;;;21.93;12.63;;;9.10;99.90;;;;;;5094381;28;20172;-77
2024/01/31 08:43:54;;;;;;;27.47;13.27;;;9.20;99.90;;;;;;5094898;28;20644;-75
2024/01/31 08:46:19;;;;;;;16.40;11.00;;;9.20;99.90;;;;;;5098198;28;20680;-76
2024/01/31 08:48:46;;;;;;;17.57;10.90;;;9.20;99.90;;;;;;5107041;28;20207;-72
2024/01/31 08:51:14;;;;;;;14.13;10.70;;;9.10;99.90;;;;;;5104290;28;20641;-74
2024/01/31 08:53:39;;;;;;;18.43;11.37;;;9.20;99.90;;;;;;5110689;28;20172;-78
2024/01/31 08:56:05;;;;;;;14.53;10.83;;;9.20;99.90;;;;;;5097399;28;20504;-77
2024/01/31 08:58:31;;;;;;;19.87;10.93;;;9.30;99.90;;;;;;5108413;28;20171;-75
2024/01/31 09:00:59;;;;;;;18.07;10.80;;;9.20;99.90;;;;;;5103592;28;20175;-74
2024/01/31 09:03:25;;;;;;;15.07;9.40;;;9.30;99.90;;;;;;5101521;28;20528;-75
2024/01/31 09:05:51;;;;;;;13.93;9.60;;;9.20;99.90;;;;;;5099567;28;20184;-74
2024/01/31 09:08:16;;;;;;;12.03;9.00;;;9.10;99.90;;;;;;5081603;28;20590;-75
2024/01/31 09:10:42;;;;;;;13.57;9.13;;;9.20;99.90;;;;;;5069717;28;20726;-71
2024/01/31 09:13:07;;;;;;;16.63;9.23;;;9.20;99.90;;;;;;5071423;28;20164;-71
2024/01/31 09:15:33;;;;;;;12.90;8.47;;;9.20;99.90;;;;;;5074614;28;20215;-71
2024/01/31 09:17:58;;;;;;;13.93;8.73;;;9.20;99.90;;;;;;5086966;28;20534;-71
2024/01/31 09:20:24;;;;;;;13.87;8.67;;;9.20;99.90;;;;;;5079961;28;20675;-72
2024/01/31 09:22:49;;;;;;;12.93;8.50;;;9.20;99.90;;;;;;5072230;28;20643;-70
2024/01/31 09:25:15;;;;;;;10.13;7.20;;;9.20;99.90;;;;;;5074180;28;20191;-70
2024/01/31 09:27:41;;;;;;;13.70;7.80;;;9.20;99.90;;;;;;5072135;28;20251;-70
2024/01/31 09:30:08;;;;;;;10.27;7.17;;;9.10;99.90;;;;;;5074013;28;20214;-71
2024/01/31 09:32:34;;;;;;;11.03;6.90;;;9.10;99.90;;;;;;5070706;28;20221;-70
2024/01/31 09:34:59;;;;;;;13.70;7.80;;;9.10;99.90;;;;;;5073965;28;20200;-71
2024/01/31 09:37:25;;;;;;;10.03;6.23;;;9.20;99.90;;;;;;5072577;28;20168;-71
2024/01/31 09:39:54;;;;;;;9.00;6.13;;;9.20;99.90;;;;;;5073633;28;20176;-71
2024/01/31 09:42:19;;;;;;;8.10;6.23;;;9.30;99.90;;;;;;5072912;28;20222;-70
2024/01/31 09:44:45;;;;;;;7.43;4.57;;;9.30;99.90;;;;;;5080321;28;20573;-71
2024/01/31 09:47:12;;;;;;;7.27;4.90;;;9.20;99.90;;;;;;5072579;28;20676;-71
2024/01/31 09:49:38;;;;;;;8.30;3.80;;;9.20;99.90;;;;;;5072925;28;20240;-71
2024/01/31 09:52:05;;;;;;;5.90;4.00;;;9.10;99.90;;;;;;5073877;28;20172;-71
2024/01/31 09:54:31;;;;;;;6.00;4.10;;;9.20;99.90;;;;;;5073227;28;20180;-70
2024/01/31 09:56:57;;;;;;;7.30;4.67;;;9.30;99.90;;;;;;5073293;28;20631;-71
2024/01/31 09:59:24;;;;;;;9.77;4.43;;;9.30;99.90;;;;;;5073298;28;20210;-72
2024/01/31 10:01:52;;;;;;;6.73;3.87;;;9.30;99.90;;;;;;5070885;28;20606;-71
2024/01/31 10:04:18;;;;;;;7.63;4.00;;;9.50;99.90;;;;;;5073409;28;20172;-70
2024/01/31 10:06:44;;;;;;;6.63;3.93;;;9.60;99.90;;;;;;5073549;28;20173;-71
2024/01/31 10:09:10;;;;;;;7.63;3.80;;;9.50;99.90;;;;;;5073247;28;20245;-70
2024/01/31 10:11:36;;;;;;;6.43;3.93;;;9.50;99.90;;;;;;5072293;28;20161;-69
2024/01/31 10:14:02;;;;;;;10.53;4.10;;;9.70;99.90;;;;;;5073056;28;20168;-71
2024/01/31 10:16:27;;;;;;;8.13;3.93;;;9.70;99.90;;;;;;5076451;28;20186;-72
2024/01/31 10:18:54;;;;;;;4.80;3.10;;;9.70;99.90;;;;;;5089479;28;20277;-72
2024/01/31 10:21:20;;;;;;;7.23;3.47;;;9.60;99.90;;;;;;5074150;28;20204;-71
2024/01/31 10:23:59;;;;;;;4.57;2.90;;;9.40;99.90;;;;;;5086069;28;20218;-71
2024/01/31 10:26:26;;;;;;;4.80;3.17;;;9.30;99.90;;;;;;5092852;28;20152;-74
2024/01/31 10:28:52;;;;;;;10.43;3.47;;;9.30;99.90;;;;;;5092893;28;20303;-74
2024/01/31 10:31:18;;;;;;;4.63;3.00;;;9.30;99.90;;;;;;5083594;28;20862;-75
2024/01/31 10:33:44;;;;;;;3.90;3.00;;;9.30;99.90;;;;;;5068915;28;20184;-77
2024/01/31 10:36:10;;;;;;;4.60;2.77;;;9.30;99.90;;;;;;5075807;28;20177;-74
2024/01/31 10:38:38;;;;;;;3.27;2.90;;;9.40;99.90;;;;;;5099656;28;20224;-72
2024/01/31 10:41:07;;;;;;;5.20;3.07;;;9.30;99.90;;;;;;5077047;28;20182;-72
2024/01/31 10:43:34;;;;;;;8.77;3.10;;;9.40;99.90;;;;;;5092728;28;20183;-72
2024/01/31 10:46:00;;;;;;;10.43;3.27;;;9.40;99.90;;;;;;5101464;28;20224;-73
2024/01/31 10:48:26;;;;;;;8.10;3.43;;;9.40;99.90;;;;;;5079916;28;20208;-73
2024/01/31 10:50:55;;;;;;;12.33;3.40;;;9.50;99.90;;;;;;5084882;28;20706;-72
2024/01/31 10:53:23;;;;;;;4.73;2.70;;;9.50;99.90;;;;;;5081718;28;20228;-72
2024/01/31 10:55:50;;;;;;;4.30;2.60;;;9.60;99.90;;;;;;5098102;28;20635;-72
2024/01/31 10:58:16;;;;;;;5.40;2.50;;;9.60;99.90;;;;;;5103218;28;20220;-72
2024/01/31 11:00:49;;;;;;;8.63;2.57;;;9.70;99.90;;;;;;5071847;28;20168;-73
2024/01/31 11:03:16;;;;;;;5.00;2.53;;;9.70;99.90;;;;;;5099900;28;20595;-71
2024/01/31 11:05:42;;;;;;;2.97;2.30;;;9.80;99.90;;;;;;5098136;28;20172;-71
2024/01/31 11:08:26;;;;;;;8.20;2.50;;;9.80;99.90;;;;;;5081496;28;20180;-70
2024/01/31 11:10:51;;;;;;;2.33;1.83;;;9.70;99.90;;;;;;5074863;28;20639;-72
2024/01/31 11:13:17;;;;;;;4.47;2.23;;;9.90;99.90;;;;;;5082836;28;20203;-72
2024/01/31 11:15:44;;;;;;;3.73;2.27;;;10.00;99.90;;;;;;5095495;28;20684;-71
2024/01/31 11:18:11;;;;;;;3.63;2.27;;;10.00;99.90;;;;;;5090062;28;20624;-72
2024/01/31 11:20:49;;;;;;;6.37;2.70;;;10.00;99.70;;;;;;5091008;28;20172;-72
2024/01/31 11:23:27;;;;;;;5.63;2.73;;;10.00;99.60;;;;;;5090528;28;20191;-71
2024/01/31 11:25:54;;;;;;;4.53;2.47;;;10.00;99.90;;;;;;5089897;28;20283;-71
2024/01/31 11:28:22;;;;;;;6.37;2.50;;;10.00;99.70;;;;;;5092364;28;20286;-71
2024/01/31 11:30:54;;;;;;;4.70;2.43;;;10.30;99.70;;;;;;5082011;28;20212;-71
2024/01/31 11:33:20;;;;;;;3.23;2.23;;;10.50;98.90;;;;;;5091571;28;20267;-71
2024/01/31 11:35:46;;;;;;;3.83;2.17;;;10.70;98.30;;;;;;5091900;28;20205;-71
2024/01/31 11:38:15;;;;;;;3.83;2.00;;;10.30;98.00;;;;;;5091737;28;20266;-70
2024/01/31 11:40:41;;;;;;;5.00;2.50;;;10.30;97.70;;;;;;5091909;28;20198;-71
2024/01/31 11:43:08;;;;;;;3.40;2.10;;;10.30;98.40;;;;;;5091068;28;20171;-70
2024/01/31 11:45:34;;;;;;;3.07;2.00;;;10.50;98.10;;;;;;5095854;28;20741;-70
2024/01/31 11:47:59;;;;;;;4.03;2.20;;;10.40;97.90;;;;;;5089328;28;20274;-72
2024/01/31 11:50:26;;;;;;;5.63;2.40;;;10.50;98.10;;;;;;5085901;28;20207;-72
2024/01/31 11:52:52;;;;;;;6.20;2.20;;;10.50;97.90;;;;;;5095821;28;20175;-71
2024/01/31 11:55:28;;;;;;;2.83;2.07;;;10.20;98.30;;;;;;5079944;28;20168;-72
2024/01/31 11:57:54;;;;;;;5.07;2.50;;;10.20;98.30;;;;;;5074696;28;20230;-70
2024/01/31 12:00:20;;;;;;;5.10;2.40;;;10.10;98.80;;;;;;5075432;28;20181;-69
2024/01/31 12:02:47;;;;;;;4.97;2.50;;;10.10;98.70;;;;;;5075565;28;20171;-72
2024/01/31 12:05:13;;;;;;;3.00;2.07;;;9.90;99.60;;;;;;5074677;28;20604;-72
2024/01/31 12:07:39;;;;;;;7.97;2.47;;;10.00;99.10;;;;;;5077627;28;20173;-71
2024/01/31 12:10:08;;;;;;;13.30;2.50;;;10.10;99.20;;;;;;5078693;28;20234;-72
2024/01/31 12:12:41;;;;;;;4.80;2.47;;;10.10;99.10;;;;;;5096014;28;20185;-74
2024/01/31 12:15:09;;;;;;;7.67;2.60;;;10.10;99.20;;;;;;5107444;28;20175;-73
2024/01/31 12:17:35;;;;;;;3.80;2.53;;;10.10;98.80;;;;;;5099894;28;20293;-74
2024/01/31 12:20:06;;;;;;;5.87;3.40;;;10.20;98.90;;;;;;5096951;28;20642;-74
2024/01/31 12:22:36;;;;;;;7.00;3.40;;;10.30;98.80;;;;;;5107899;28;20179;-74
2024/01/31 12:25:02;;;;;;;6.47;2.70;;;10.20;98.90;;;;;;5105036;28;20183;-74
2024/01/31 12:27:28;;;;;;;6.20;2.63;;;10.20;98.70;;;;;;5107884;28;20184;-73
2024/01/31 12:29:53;;;;;;;3.80;2.30;;;10.30;98.80;;;;;;5097737;28;20203;-73
2024/01/31 12:32:19;;;;;;;3.30;2.40;;;10.20;99.30;;;;;;5110494;28;20674;-73
2024/01/31 12:34:44;;;;;;;6.97;2.57;;;10.30;99.20;;;;;;5074532;28;20754;-72
2024/01/31 12:37:10;;;;;;;4.20;2.23;;;10.40;99.10;;;;;;5091419;28;20207;-74